createdAt,value
2023-01-10T00:00:37.668Z,7.55
2023-01-10T00:03:08.638Z,2.95
2023-01-10T00:05:38.988Z,4.47
2023-01-10T00:08:06.539Z,6.03
2023-01-10T00:10:33.753Z,3.50
2023-01-10T00:13:19.572Z,3.35
2023-01-10T00:15:46.794Z,4.32
2023-01-10T00:18:13.856Z,5.38
2023-01-10T00:20:40.947Z,8.20
2023-01-10T00:23:08.027Z,3.88
2023-01-10T00:25:36.265Z,4.18
2023-01-10T00:28:21.703Z,4.57
2023-01-10T00:30:55.087Z,3.15
2023-01-10T00:33:22.311Z,5.07
2023-01-10T00:35:49.371Z,5.15
2023-01-10T00:38:16.883Z,3.92
2023-01-10T00:40:43.953Z,5.90
2023-01-10T00:43:29.511Z,4.22
2023-01-10T00:45:57.872Z,2.33
2023-01-10T00:48:25.156Z,4.25
2023-01-10T00:50:52.382Z,4.45
2023-01-10T00:53:19.435Z,4.65
2023-01-10T00:55:46.625Z,4.60
2023-01-10T00:58:14.199Z,5.25
2023-01-10T01:00:41.742Z,7.38
2023-01-10T01:03:09.035Z,6.63
2023-01-10T01:05:40.956Z,7.53
2023-01-10T01:08:07.978Z,7.45
2023-01-10T01:10:35.104Z,5.95
2023-01-10T01:13:11.998Z,6.18
2023-01-10T01:15:39.088Z,9.23
2023-01-10T01:18:06.212Z,6.55
2023-01-10T01:20:33.360Z,7.65
2023-01-10T01:23:01.018Z,7.35
2023-01-10T01:25:28.116Z,7.57
2023-01-10T01:27:55.265Z,7.38
2023-01-10T01:30:22.324Z,10.60
2023-01-10T01:32:49.493Z,10.68
2023-01-10T01:35:16.993Z,6.70
2023-01-10T01:37:44.226Z,8.50
2023-01-10T01:40:15.498Z,10.55
2023-01-10T01:42:42.672Z,7.13
2023-01-10T01:45:09.774Z,8.45
2023-01-10T01:47:38.345Z,11.15
2023-01-10T01:50:05.536Z,9.63
2023-01-10T01:56:03.997Z,8.63
2023-01-10T01:58:39.315Z,9.50
2023-01-10T02:01:06.431Z,8.90
2023-01-10T02:03:33.521Z,7.00
2023-01-10T02:06:00.578Z,8.10
2023-01-10T02:08:27.653Z,9.27
2023-01-10T02:11:08.884Z,8.27
2023-01-10T02:13:35.957Z,12.43
2023-01-10T02:16:03.051Z,9.60
2023-01-10T02:18:30.172Z,10.48
2023-01-10T02:20:57.223Z,11.60
2023-01-10T02:23:31.990Z,8.00
2023-01-10T02:26:14.366Z,8.55
2023-01-10T02:28:47.834Z,9.95
2023-01-10T02:31:24.118Z,9.27
2023-01-10T02:33:58.656Z,11.02
2023-01-10T02:36:29.640Z,10.68
2023-01-10T02:39:02.643Z,12.57
2023-01-10T02:41:32.773Z,11.27
2023-01-10T02:44:08.582Z,10.25
2023-01-10T02:46:35.741Z,10.00
2023-01-10T02:49:02.868Z,7.82
2023-01-10T02:51:30.635Z,10.88
2023-01-10T02:54:08.234Z,15.02
2023-01-10T02:56:38.906Z,14.07
2023-01-10T02:59:26.240Z,16.67
2023-01-10T03:01:55.452Z,12.65
2023-01-10T03:04:30.270Z,10.57
2023-01-10T03:06:59.178Z,10.60
2023-01-10T03:09:26.249Z,8.30
2023-01-10T03:11:54.765Z,9.13
2023-01-10T03:14:25.687Z,7.43
2023-01-10T03:16:59.874Z,7.50
2023-01-10T03:19:28.553Z,15.05
2023-01-10T03:21:57.407Z,10.02
2023-01-10T03:24:29.569Z,12.02
2023-01-10T03:27:03.064Z,8.43
2023-01-10T03:29:32.219Z,7.57
2023-01-10T03:32:01.371Z,9.90
2023-01-10T03:34:28.406Z,8.95
2023-01-10T03:37:14.728Z,7.68
2023-01-10T03:39:50.862Z,8.98
2023-01-10T03:42:26.742Z,9.45
2023-01-10T03:44:56.529Z,9.48
2023-01-10T03:47:29.831Z,14.25
2023-01-10T03:50:23.405Z,11.38
2023-01-10T03:52:50.509Z,6.90
2023-01-10T03:55:24.403Z,8.45
2023-01-10T03:57:51.536Z,7.90
2023-01-10T04:00:18.892Z,11.30
2023-01-10T04:02:46.020Z,8.48
2023-01-10T04:05:13.040Z,10.55
2023-01-10T04:07:40.293Z,11.70
2023-01-10T04:10:07.577Z,12.30
2023-01-10T04:12:34.627Z,11.48
2023-01-10T04:15:02.862Z,11.88
2023-01-10T04:17:30.000Z,15.15
2023-01-10T04:19:57.113Z,8.15
2023-01-10T04:22:24.127Z,11.07
2023-01-10T04:24:51.956Z,14.95
2023-01-10T04:27:19.240Z,13.90
2023-01-10T04:29:46.323Z,14.30
2023-01-10T04:32:13.536Z,16.42
2023-01-10T04:34:40.692Z,13.77
2023-01-10T04:37:07.764Z,14.30
2023-01-10T04:39:34.819Z,15.05
2023-01-10T04:42:01.916Z,16.45
2023-01-10T04:44:28.922Z,17.35
2023-01-10T04:46:56.231Z,15.57
2023-01-10T04:49:23.328Z,15.32
2023-01-10T04:51:50.414Z,16.00
2023-01-10T04:54:20.293Z,11.73
2023-01-10T04:56:47.340Z,19.83
2023-01-10T04:59:14.380Z,20.20
2023-01-10T05:01:41.536Z,15.15
2023-01-10T05:04:08.816Z,11.40
2023-01-10T05:06:35.984Z,13.65
2023-01-10T05:09:03.245Z,10.15
2023-01-10T05:11:30.297Z,11.32
2023-01-10T05:13:57.376Z,13.35
2023-01-10T05:16:25.426Z,11.00
2023-01-10T05:18:52.540Z,22.02
2023-01-10T05:21:19.742Z,15.18
2023-01-10T05:23:46.779Z,12.40
2023-01-10T05:26:17.432Z,16.65
2023-01-10T05:28:44.489Z,13.88
2023-01-10T05:31:12.598Z,13.38
2023-01-10T05:33:39.652Z,16.15
2023-01-10T05:36:06.988Z,12.35
2023-01-10T05:38:34.076Z,14.43
2023-01-10T05:41:01.393Z,15.95
2023-01-10T05:43:28.565Z,9.23
2023-01-10T05:45:55.707Z,12.07
2023-01-10T05:48:22.824Z,11.13
2023-01-10T05:50:50.244Z,11.25
2023-01-10T05:53:17.393Z,9.02
2023-01-10T05:55:44.616Z,10.05
2023-01-10T05:58:11.757Z,8.98
2023-01-10T06:00:41.819Z,13.32
2023-01-10T06:03:08.968Z,8.02
2023-01-10T06:05:36.096Z,7.10
2023-01-10T06:08:03.182Z,10.70
2023-01-10T06:10:30.230Z,11.85
2023-01-10T06:12:57.236Z,12.27
2023-01-10T06:15:24.322Z,13.50
2023-01-10T06:17:51.408Z,10.90
2023-01-10T06:20:18.518Z,8.80
2023-01-10T06:22:45.577Z,11.80
2023-01-10T06:25:14.867Z,12.25
2023-01-10T06:27:42.177Z,8.63
2023-01-10T06:30:09.803Z,13.65
2023-01-10T06:32:37.125Z,13.25
2023-01-10T06:35:04.567Z,12.82
2023-01-10T06:37:31.662Z,14.23
2023-01-10T06:39:58.680Z,16.75
2023-01-10T06:42:25.798Z,13.85
2023-01-10T06:44:52.849Z,13.13
2023-01-10T06:47:19.924Z,16.48
2023-01-10T06:49:46.946Z,13.10
2023-01-10T06:52:14.012Z,16.75
2023-01-10T06:54:41.609Z,10.35
2023-01-10T06:57:08.883Z,12.55
2023-01-10T06:59:35.987Z,16.60
2023-01-10T07:02:03.121Z,9.05
2023-01-10T07:04:30.229Z,13.02
2023-01-10T07:06:57.272Z,17.70
2023-01-10T07:09:24.360Z,11.77
2023-01-10T07:11:51.410Z,15.45
2023-01-10T07:14:18.596Z,20.48
2023-01-10T07:16:45.629Z,10.15
2023-01-10T07:19:13.566Z,9.73
2023-01-10T07:21:41.622Z,10.90
2023-01-10T07:24:09.046Z,13.98
2023-01-10T07:26:36.230Z,11.63
2023-01-10T07:29:03.309Z,12.73
2023-01-10T07:31:30.380Z,20.33
2023-01-10T07:33:57.370Z,16.52
2023-01-10T07:36:24.498Z,10.82
2023-01-10T07:38:51.592Z,11.63
2023-01-10T07:41:18.643Z,11.77
2023-01-10T07:43:45.699Z,13.32
2023-01-10T07:46:12.937Z,16.65
2023-01-10T07:48:41.973Z,11.93
2023-01-10T07:51:09.009Z,14.43
2023-01-10T07:53:36.060Z,13.43
2023-01-10T07:56:03.305Z,15.77
2023-01-10T07:58:30.479Z,15.48
2023-01-10T08:00:58.236Z,14.77
2023-01-10T08:03:25.385Z,15.13
2023-01-10T08:05:58.964Z,15.20
2023-01-10T08:08:26.060Z,17.45
2023-01-10T08:10:53.167Z,15.73
2023-01-10T08:13:20.190Z,13.20
2023-01-10T08:15:50.163Z,11.40
2023-01-10T08:18:17.477Z,17.30
2023-01-10T08:20:47.030Z,12.48
2023-01-10T08:23:14.553Z,10.30
2023-01-10T08:25:41.707Z,15.65
2023-01-10T08:28:09.054Z,11.60
2023-01-10T08:30:36.168Z,19.50
2023-01-10T08:33:03.653Z,13.05
2023-01-10T08:35:30.832Z,15.05
2023-01-10T08:38:01.134Z,16.27
2023-01-10T08:40:28.308Z,12.15
2023-01-10T08:43:02.130Z,10.85
2023-01-10T08:45:29.607Z,17.67
2023-01-10T08:47:56.779Z,15.75
2023-01-10T08:50:24.020Z,13.00
2023-01-10T08:52:53.999Z,10.43
2023-01-10T08:55:21.078Z,15.57
2023-01-10T08:57:48.277Z,14.98
2023-01-10T09:00:15.584Z,11.98
2023-01-10T09:02:42.853Z,10.57
2023-01-10T09:05:22.268Z,18.45
2023-01-10T09:07:54.084Z,13.13
2023-01-10T09:10:21.510Z,12.18
2023-01-10T09:12:54.569Z,15.23
2023-01-10T09:15:22.244Z,19.30
2023-01-10T09:17:51.970Z,17.20
2023-01-10T09:20:19.055Z,13.87
2023-01-10T09:22:46.093Z,12.73
2023-01-10T09:25:13.176Z,20.75
2023-01-10T09:27:40.247Z,11.65
2023-01-10T09:30:07.517Z,12.65
2023-01-10T09:32:34.537Z,23.48
2023-01-10T09:35:01.609Z,16.92
2023-01-10T09:37:28.802Z,10.88
2023-01-10T09:39:55.938Z,13.13
2023-01-10T09:42:22.948Z,17.27
2023-01-10T09:44:50.032Z,12.68
2023-01-10T09:47:23.572Z,13.13
2023-01-10T09:50:06.388Z,15.25
2023-01-10T09:52:40.544Z,17.88
2023-01-10T09:55:27.225Z,13.93
2023-01-10T09:57:55.201Z,20.65
2023-01-10T10:00:23.699Z,15.70
2023-01-10T10:02:52.655Z,13.40
2023-01-10T10:05:21.040Z,17.60
2023-01-10T10:07:51.485Z,18.33
2023-01-10T10:10:19.507Z,13.13
2023-01-10T10:12:49.227Z,22.30
2023-01-10T10:15:21.265Z,14.20
2023-01-10T10:17:51.330Z,13.95
2023-01-10T10:20:18.344Z,20.95
2023-01-10T10:22:51.405Z,17.42
2023-01-10T10:25:36.920Z,11.13
2023-01-10T10:28:13.844Z,17.27
2023-01-10T10:30:44.092Z,15.88
2023-01-10T10:33:30.440Z,22.52
2023-01-10T10:36:01.819Z,21.17
2023-01-10T10:38:30.829Z,21.70
2023-01-10T10:40:58.231Z,20.40
2023-01-10T10:43:27.948Z,18.85
2023-01-10T10:45:56.122Z,17.70
2023-01-10T10:48:27.029Z,21.48
2023-01-10T10:51:03.208Z,16.95
2023-01-10T10:53:30.508Z,24.10
2023-01-10T10:55:57.613Z,18.80
2023-01-10T10:58:25.968Z,16.90
2023-01-10T11:00:53.354Z,18.55
2023-01-10T11:03:26.003Z,12.32
2023-01-10T11:05:53.014Z,18.77
2023-01-10T11:08:21.336Z,14.57
2023-01-10T11:10:49.489Z,17.38
2023-01-10T11:13:34.838Z,15.73
2023-01-10T11:16:02.674Z,15.27
2023-01-10T11:18:30.219Z,14.90
2023-01-10T11:20:58.136Z,16.75
2023-01-10T11:23:26.687Z,11.80
2023-01-10T11:25:53.761Z,18.92
2023-01-10T11:28:23.119Z,18.25
2023-01-10T11:30:50.180Z,16.83
2023-01-10T11:33:39.808Z,15.18
2023-01-10T11:36:07.816Z,17.35
2023-01-10T11:38:35.151Z,12.75
2023-01-10T11:41:03.031Z,14.60
2023-01-10T11:43:30.046Z,12.30
2023-01-10T11:45:58.534Z,21.92
2023-01-10T11:48:50.370Z,18.77
2023-01-10T11:51:17.100Z,14.40
2023-01-10T11:53:44.276Z,12.88
2023-01-10T11:56:12.295Z,11.77
2023-01-10T11:58:39.988Z,15.85
2023-01-10T12:01:07.143Z,16.80
2023-01-10T12:03:36.977Z,16.42
2023-01-10T12:06:05.399Z,16.05
2023-01-10T12:08:33.112Z,17.92
2023-01-10T12:11:01.872Z,13.15
2023-01-10T12:13:30.198Z,17.85
2023-01-10T12:16:16.236Z,12.88
2023-01-10T12:18:43.329Z,16.92
2023-01-10T12:21:10.796Z,17.30
2023-01-10T12:23:41.383Z,18.10
2023-01-10T12:28:40.458Z,14.88
2023-01-10T12:31:07.658Z,17.38
2023-01-10T12:33:35.604Z,16.92
2023-01-10T12:36:02.626Z,12.60
2023-01-10T12:39:18.321Z,15.77
2023-01-10T12:42:06.811Z,16.95
2023-01-10T12:44:37.625Z,14.38
2023-01-10T12:47:11.323Z,11.90
2023-01-10T12:49:50.286Z,12.70
2023-01-10T12:52:40.919Z,16.85
2023-01-10T12:57:38.536Z,13.02
2023-01-10T13:00:06.294Z,9.10
2023-01-10T13:02:41.263Z,14.00
2023-01-10T13:05:08.620Z,18.75
2023-01-10T13:07:35.747Z,15.00
2023-01-10T13:10:06.356Z,13.13
2023-01-10T13:15:11.459Z,11.18
2023-01-10T13:17:40.499Z,14.18
2023-01-10T13:20:16.863Z,13.45
2023-01-10T13:22:47.908Z,13.77
2023-01-10T13:25:21.992Z,15.05
2023-01-10T13:27:52.839Z,12.50
2023-01-10T13:30:26.608Z,14.52
2023-01-10T13:32:56.775Z,17.02
2023-01-10T13:35:25.850Z,14.43
2023-01-10T13:37:53.483Z,14.63
2023-01-10T13:40:27.290Z,20.90
2023-01-10T13:43:18.868Z,14.65
2023-01-10T13:45:46.007Z,15.80
2023-01-10T13:48:26.112Z,19.30
2023-01-10T13:50:57.664Z,13.57
2023-01-10T13:53:33.795Z,19.20
2023-01-10T13:56:00.834Z,16.00
2023-01-10T13:58:58.997Z,18.00
2023-01-10T14:01:44.723Z,17.42
2023-01-10T14:04:21.658Z,15.98
2023-01-10T14:06:52.638Z,18.60
2023-01-10T14:09:20.314Z,15.60
2023-01-10T14:11:51.814Z,16.88
2023-01-10T14:14:20.180Z,15.63
2023-01-10T14:16:47.767Z,20.02
2023-01-10T14:19:24.961Z,20.42
2023-01-10T14:21:53.211Z,16.92
2023-01-10T14:24:27.281Z,15.35
2023-01-10T14:26:57.307Z,21.38
2023-01-10T14:29:24.545Z,22.77
2023-01-10T14:31:52.992Z,19.05
2023-01-10T14:34:24.083Z,21.50
2023-01-10T14:37:01.331Z,20.35
2023-01-10T14:39:28.646Z,27.90
2023-01-10T14:41:57.161Z,17.17
2023-01-10T14:44:26.805Z,16.38
2023-01-10T14:46:54.833Z,19.90
2023-01-10T14:49:28.204Z,19.40
2023-01-10T14:52:00.794Z,25.55
2023-01-10T14:54:29.340Z,18.10
2023-01-10T14:56:57.550Z,22.17
2023-01-10T14:59:31.970Z,24.48
2023-01-10T15:01:59.860Z,23.25
2023-01-10T15:04:30.520Z,21.00
2023-01-10T15:07:02.916Z,18.30
2023-01-10T15:09:30.631Z,22.42
2023-01-10T15:12:00.555Z,25.70
2023-01-10T15:14:28.425Z,17.70
2023-01-10T15:16:57.615Z,18.92
2023-01-10T15:19:24.771Z,28.25
2023-01-10T15:21:51.928Z,26.23
2023-01-10T15:24:25.062Z,19.38
2023-01-10T15:26:52.640Z,23.27
2023-01-10T15:29:23.273Z,23.92
2023-01-10T15:34:21.367Z,23.35
2023-01-10T15:36:55.316Z,18.00
2023-01-10T15:39:23.272Z,36.63
2023-01-10T15:41:50.774Z,22.48
2023-01-10T15:44:30.123Z,19.77
2023-01-10T15:46:57.496Z,27.13
2023-01-10T15:49:25.274Z,21.58
2023-01-10T15:51:52.357Z,25.25
2023-01-10T15:54:19.739Z,30.58
2023-01-10T15:56:50.557Z,25.45
2023-01-10T15:59:33.162Z,35.90
2023-01-10T16:02:09.598Z,27.05
2023-01-10T16:04:36.794Z,22.25
2023-01-10T16:07:07.868Z,27.23
2023-01-10T16:09:35.777Z,23.73
2023-01-10T16:12:21.512Z,22.48
2023-01-10T16:14:48.614Z,25.23
2023-01-10T16:17:15.773Z,27.77
2023-01-10T16:19:42.830Z,22.85
2023-01-10T16:22:11.697Z,24.20
2023-01-10T16:24:39.705Z,25.95
2023-01-10T16:27:06.982Z,18.75
2023-01-10T16:29:34.314Z,27.75
2023-01-10T16:32:01.764Z,22.83
2023-01-10T16:34:29.713Z,24.77
2023-01-10T16:36:56.821Z,20.65
2023-01-10T16:39:24.161Z,27.25
2023-01-10T16:42:09.721Z,24.75
2023-01-10T16:44:36.846Z,27.13
2023-01-10T16:47:06.743Z,21.02
2023-01-10T16:49:34.259Z,26.50
2023-01-10T16:52:01.383Z,24.33
2023-01-10T16:54:28.579Z,21.38
2023-01-10T16:56:55.895Z,20.60
2023-01-10T16:59:23.106Z,21.35
2023-01-10T17:01:50.376Z,26.42
2023-01-10T17:04:20.199Z,21.98
2023-01-10T17:06:47.386Z,19.80
2023-01-10T17:09:17.285Z,20.17
2023-01-10T17:11:44.345Z,25.60
2023-01-10T17:14:14.746Z,18.30
2023-01-10T17:16:41.864Z,19.58
2023-01-10T17:19:09.177Z,23.38
2023-01-10T17:21:36.253Z,22.83
2023-01-10T17:24:03.335Z,25.70
2023-01-10T17:26:31.747Z,22.33
2023-01-10T17:28:58.842Z,29.65
2023-01-10T17:31:25.951Z,21.00
2023-01-10T17:33:53.043Z,15.85
2023-01-10T17:36:21.365Z,21.00
2023-01-10T17:38:48.507Z,20.98
2023-01-10T17:41:15.562Z,21.00
2023-01-10T17:43:42.675Z,17.15
2023-01-10T17:46:10.979Z,25.33
2023-01-10T17:48:38.245Z,16.75
2023-01-10T17:51:05.493Z,22.40
2023-01-10T17:53:32.600Z,21.50
2023-01-10T17:56:01.071Z,13.48
2023-01-10T17:58:28.182Z,28.67
2023-01-10T18:00:55.424Z,11.40
2023-01-10T18:03:22.556Z,16.08
2023-01-10T18:10:01.595Z,16.50
2023-01-10T18:12:28.977Z,21.73
2023-01-10T18:14:56.040Z,26.08
2023-01-10T18:17:23.081Z,19.73
2023-01-10T18:19:50.239Z,19.10
2023-01-10T18:22:36.254Z,22.92
2023-01-10T18:25:03.714Z,24.98
2023-01-10T18:27:30.804Z,14.77
2023-01-10T18:29:57.847Z,21.10
2023-01-10T18:32:25.019Z,14.70
2023-01-10T18:34:52.048Z,17.77
2023-01-10T18:37:19.440Z,16.02
2023-01-10T18:39:47.311Z,17.80
2023-01-10T18:42:14.527Z,19.10
2023-01-10T18:44:41.639Z,14.40
2023-01-10T18:47:08.757Z,12.68
2023-01-10T18:49:35.837Z,15.40
2023-01-10T18:52:02.929Z,17.70
2023-01-10T18:54:31.713Z,24.83
2023-01-10T18:56:58.822Z,18.50
2023-01-10T18:59:25.887Z,16.50
2023-01-10T19:01:53.068Z,18.55
2023-01-10T19:04:20.149Z,26.40
2023-01-10T19:06:47.322Z,11.80
2023-01-10T19:09:14.422Z,15.68
2023-01-10T19:11:41.540Z,19.25
2023-01-10T19:14:08.582Z,18.90
2023-01-10T19:16:35.669Z,17.52
2023-01-10T19:19:03.510Z,17.80
2023-01-10T19:21:31.430Z,13.70
2023-01-10T19:24:00.956Z,19.67
2023-01-10T19:26:28.142Z,13.10
2023-01-10T19:28:55.196Z,10.73
2023-01-10T19:31:23.491Z,14.13
2023-01-10T19:33:50.835Z,14.57
2023-01-10T19:36:21.725Z,17.67
2023-01-10T19:38:48.958Z,15.02
2023-01-10T19:41:16.129Z,11.80
2023-01-10T19:43:43.260Z,11.18
2023-01-10T19:46:10.925Z,11.40
2023-01-10T19:48:38.322Z,10.85
2023-01-10T19:51:14.600Z,11.25
2023-01-10T19:53:46.414Z,7.72
2023-01-10T19:56:18.332Z,17.30
2023-01-10T19:58:45.659Z,14.27
2023-01-10T20:01:14.308Z,14.20
2023-01-10T20:03:42.461Z,19.05
2023-01-10T20:06:14.239Z,9.10
2023-01-10T20:08:41.731Z,8.65
2023-01-10T20:11:08.861Z,13.88
2023-01-10T20:13:37.121Z,16.52
2023-01-10T20:16:07.637Z,16.58
2023-01-10T20:21:04.117Z,16.92
2023-01-10T20:23:31.693Z,11.60
2023-01-10T20:25:59.313Z,15.73
2023-01-10T20:28:26.458Z,20.10
2023-01-10T20:30:53.620Z,18.02
2023-01-10T20:33:21.926Z,9.93
2023-01-10T20:35:56.233Z,12.30
2023-01-10T20:38:23.385Z,17.15
2023-01-10T20:40:50.464Z,17.15
2023-01-10T20:43:18.065Z,13.57
2023-01-10T20:45:45.171Z,16.92
2023-01-10T20:48:12.243Z,19.90
2023-01-10T20:50:41.814Z,15.18
2023-01-10T20:53:08.836Z,11.20
2023-01-10T20:55:36.001Z,14.95
2023-01-10T20:58:03.369Z,22.08
2023-01-10T21:00:30.620Z,12.43
2023-01-10T21:02:57.700Z,15.45
2023-01-10T21:05:24.805Z,13.88
2023-01-10T21:07:51.859Z,15.50
2023-01-10T21:10:19.001Z,10.88
2023-01-10T21:12:46.070Z,12.63
2023-01-10T21:15:13.199Z,16.15
2023-01-10T21:17:41.956Z,15.50
2023-01-10T21:20:09.482Z,12.48
2023-01-10T21:22:36.774Z,11.70
2023-01-10T21:25:04.047Z,13.73
2023-01-10T21:27:31.779Z,14.80
2023-01-10T21:29:58.901Z,14.75
2023-01-10T21:32:25.967Z,16.15
2023-01-10T21:34:53.009Z,11.77
2023-01-10T21:37:20.100Z,12.40
2023-01-10T21:39:47.200Z,15.82
2023-01-10T21:42:33.070Z,16.25
2023-01-10T21:45:00.255Z,19.25
2023-01-10T21:47:27.385Z,16.92
2023-01-10T21:49:54.466Z,12.75
2023-01-10T21:52:21.487Z,12.40
2023-01-10T21:54:48.503Z,17.73
2023-01-10T21:57:21.632Z,18.67
2023-01-10T21:59:49.341Z,14.10
2023-01-10T22:02:16.558Z,14.40
2023-01-10T22:04:47.324Z,13.93
2023-01-10T22:07:14.831Z,20.52
2023-01-10T22:09:41.932Z,10.07
2023-01-10T22:12:09.136Z,11.90
2023-01-10T22:14:36.340Z,14.18
2023-01-10T22:17:03.758Z,14.10
2023-01-10T22:19:30.832Z,13.98
2023-01-10T22:21:57.931Z,24.17
2023-01-10T22:24:25.055Z,16.02
2023-01-10T22:26:54.465Z,17.80
2023-01-10T22:29:21.619Z,15.85
2023-01-10T22:31:48.954Z,18.65
2023-01-10T22:34:19.117Z,12.68
2023-01-10T22:36:46.172Z,14.15
2023-01-10T22:39:13.251Z,22.00
2023-01-10T22:41:40.457Z,17.13
2023-01-10T22:44:07.604Z,16.08
2023-01-10T22:46:34.716Z,17.17
2023-01-10T22:49:01.809Z,19.13
2023-01-10T22:51:30.740Z,18.00
2023-01-10T22:53:59.125Z,14.70
2023-01-10T22:56:26.298Z,15.68
2023-01-10T22:58:53.401Z,14.45
2023-01-10T23:01:21.320Z,23.27
2023-01-10T23:03:48.517Z,13.95
2023-01-10T23:06:15.808Z,16.13
2023-01-10T23:08:42.980Z,18.27
2023-01-10T23:11:10.246Z,16.55
2023-01-10T23:13:37.319Z,17.50
2023-01-10T23:16:08.546Z,18.65
2023-01-10T23:18:35.756Z,17.77
2023-01-10T23:21:02.841Z,13.40
2023-01-10T23:23:29.971Z,12.27
2023-01-10T23:26:04.625Z,19.23
2023-01-10T23:28:35.742Z,15.50
2023-01-10T23:31:02.824Z,12.27
2023-01-10T23:33:30.263Z,13.50
2023-01-10T23:35:57.455Z,20.77
2023-01-10T23:38:24.697Z,20.63
2023-01-10T23:40:51.794Z,18.58
2023-01-10T23:43:18.850Z,10.27
2023-01-10T23:45:46.000Z,15.98
2023-01-10T23:48:13.166Z,14.25
2023-01-10T23:50:40.385Z,14.60
2023-01-10T23:53:07.541Z,17.15
2023-01-10T23:55:34.585Z,17.02
2023-01-10T23:58:01.652Z,14.85
